sensor_id;sensor_type;location;lat;lon;timestamp;pressure;altitude;pressure_sealevel;temperature;humidity
23677;BME280;31493;49.058;12.190;2022-12-10T00:00:28;94773.91;;;-0.84;100.00
23677;BME280;31493;49.058;12.190;2022-12-10T00:02:55;94784.91;;;-0.84;100.00
23677;BME280;31493;49.058;12.190;2022-12-10T00:05:22;94776.13;;;-0.76;100.00
23677;BME280;31493;49.058;12.190;2022-12-10T00:07:49;94782.47;;;-0.87;100.00
23677;BME280;31493;49.058;12.190;2022-12-10T00:10:16;94783.25;;;-0.85;100.00
23677;BME280;31493;49.058;12.190;2022-12-10T00:12:43;94784.34;;;-0.90;100.00
23677;BME280;31493;49.058;12.190;2022-12-10T00:15:10;94779.47;;;-0.95;100.00
23677;BME280;31493;49.058;12.190;2022-12-10T00:17:38;94782.56;;;-0.88;100.00
23677;BME280;31493;49.058;12.190;2022-12-10T00:20:06;94790.06;;;-0.85;100.00
23677;BME280;31493;49.058;12.190;2022-12-10T00:22:33;94785.03;;;-0.87;100.00
23677;BME280;31493;49.058;12.190;2022-12-10T00:25:00;94788.00;;;-0.77;100.00
23677;BME280;31493;49.058;12.190;2022-12-10T00:27:27;94797.13;;;-0.92;100.00
23677;BME280;31493;49.058;12.190;2022-12-10T00:29:54;94787.72;;;-0.90;100.00
23677;BME280;31493;49.058;12.190;2022-12-10T00:32:21;94791.91;;;-0.89;100.00
23677;BME280;31493;49.058;12.190;2022-12-10T00:34:50;94804.03;;;-0.95;100.00
23677;BME280;31493;49.058;12.190;2022-12-10T00:37:17;94795.97;;;-0.85;100.00
23677;BME280;31493;49.058;12.190;2022-12-10T00:39:44;94799.44;;;-0.87;100.00
23677;BME280;31493;49.058;12.190;2022-12-10T00:42:11;94806.16;;;-0.86;100.00
23677;BME280;31493;49.058;12.190;2022-12-10T00:44:38;94793.53;;;-0.88;100.00
23677;BME280;31493;49.058;12.190;2022-12-10T00:47:05;94804.66;;;-0.90;100.00
23677;BME280;31493;49.058;12.190;2022-12-10T00:49:33;94801.97;;;-0.87;100.00
23677;BME280;31493;49.058;12.190;2022-12-10T00:52:01;94805.22;;;-0.84;100.00
23677;BME280;31493;49.058;12.190;2022-12-10T00:54:28;94810.03;;;-0.77;100.00
23677;BME280;31493;49.058;12.190;2022-12-10T00:56:55;94800.06;;;-0.82;100.00
23677;BME280;31493;49.058;12.190;2022-12-10T00:59:22;94823.91;;;-0.85;100.00
23677;BME280;31493;49.058;12.190;2022-12-10T01:01:49;94817.88;;;-0.63;100.00
23677;BME280;31493;49.058;12.190;2022-12-10T01:04:17;94818.06;;;-0.68;100.00
23677;BME280;31493;49.058;12.190;2022-12-10T01:06:46;94819.13;;;-0.72;100.00
23677;BME280;31493;49.058;12.190;2022-12-10T01:09:15;94820.22;;;-0.59;100.00
23677;BME280;31493;49.058;12.190;2022-12-10T01:11:44;94821.47;;;-0.67;100.00
23677;BME280;31493;49.058;12.190;2022-12-10T01:14:14;94814.38;;;-0.79;100.00
23677;BME280;31493;49.058;12.190;2022-12-10T01:16:43;94811.88;;;-0.81;100.00
23677;BME280;31493;49.058;12.190;2022-12-10T01:19:11;94806.31;;;-0.89;100.00
23677;BME280;31493;49.058;12.190;2022-12-10T01:21:38;94807.34;;;-0.74;100.00
23677;BME280;31493;49.058;12.190;2022-12-10T01:24:06;94822.31;;;-0.87;100.00
23677;BME280;31493;49.058;12.190;2022-12-10T01:26:35;94810.31;;;-0.84;100.00
23677;BME280;31493;49.058;12.190;2022-12-10T01:29:03;94814.38;;;-0.79;100.00
23677;BME280;31493;49.058;12.190;2022-12-10T01:31:32;94828.38;;;-0.90;100.00
23677;BME280;31493;49.058;12.190;2022-12-10T01:34:00;94822.28;;;-0.86;100.00
23677;BME280;31493;49.058;12.190;2022-12-10T01:36:31;94837.78;;;-0.92;100.00
23677;BME280;31493;49.058;12.190;2022-12-10T01:38:59;94847.22;;;-0.95;100.00
23677;BME280;31493;49.058;12.190;2022-12-10T01:41:29;94841.00;;;-0.88;100.00
23677;BME280;31493;49.058;12.190;2022-12-10T01:44:00;94845.44;;;-0.73;100.00
23677;BME280;31493;49.058;12.190;2022-12-10T01:46:29;94853.00;;;-0.52;100.00
23677;BME280;31493;49.058;12.190;2022-12-10T01:48:57;94860.59;;;-0.71;100.00
23677;BME280;31493;49.058;12.190;2022-12-10T01:51:28;94861.00;;;-0.81;100.00
23677;BME280;31493;49.058;12.190;2022-12-10T01:53:56;94855.03;;;-0.79;100.00
23677;BME280;31493;49.058;12.190;2022-12-10T01:56:24;94854.16;;;-0.78;100.00
23677;BME280;31493;49.058;12.190;2022-12-10T01:58:53;94850.06;;;-0.83;100.00
23677;BME280;31493;49.058;12.190;2022-12-10T02:01:27;94857.22;;;-0.91;100.00
23677;BME280;31493;49.058;12.190;2022-12-10T02:04:04;94851.47;;;-0.75;100.00
23677;BME280;31493;49.058;12.190;2022-12-10T02:06:45;94854.41;;;-0.85;100.00
23677;BME280;31493;49.058;12.190;2022-12-10T02:09:19;94850.00;;;-0.81;100.00
23677;BME280;31493;49.058;12.190;2022-12-10T02:11:58;94860.16;;;-0.81;100.00
23677;BME280;31493;49.058;12.190;2022-12-10T02:14:30;94866.28;;;-0.85;100.00
23677;BME280;31493;49.058;12.190;2022-12-10T02:17:05;94854.84;;;-0.56;100.00
23677;BME280;31493;49.058;12.190;2022-12-10T02:19:49;94858.66;;;-0.46;100.00
23677;BME280;31493;49.058;12.190;2022-12-10T02:22:19;94859.47;;;-0.45;100.00
23677;BME280;31493;49.058;12.190;2022-12-10T02:24:49;94870.25;;;-0.40;100.00
23677;BME280;31493;49.058;12.190;2022-12-10T02:27:21;94866.16;;;-0.43;100.00
23677;BME280;31493;49.058;12.190;2022-12-10T02:29:52;94862.19;;;-0.50;100.00
23677;BME280;31493;49.058;12.190;2022-12-10T02:32:23;94860.72;;;-0.54;100.00
23677;BME280;31493;49.058;12.190;2022-12-10T02:34:54;94864.59;;;-0.66;100.00
23677;BME280;31493;49.058;12.190;2022-12-10T02:37:24;94855.88;;;-0.79;100.00
23677;BME280;31493;49.058;12.190;2022-12-10T02:39:55;94844.81;;;-0.78;100.00
23677;BME280;31493;49.058;12.190;2022-12-10T02:42:25;94847.06;;;-0.72;100.00
23677;BME280;31493;49.058;12.190;2022-12-10T02:44:57;94848.56;;;-0.68;100.00
23677;BME280;31493;49.058;12.190;2022-12-10T02:47:25;94846.97;;;-0.89;100.00
23677;BME280;31493;49.058;12.190;2022-12-10T02:49:53;94851.03;;;-0.85;100.00
23677;BME280;31493;49.058;12.190;2022-12-10T02:52:23;94851.97;;;-0.88;100.00
23677;BME280;31493;49.058;12.190;2022-12-10T02:54:51;94850.25;;;-0.87;100.00
23677;BME280;31493;49.058;12.190;2022-12-10T02:57:29;94855.53;;;-0.71;100.00
23677;BME280;31493;49.058;12.190;2022-12-10T03:00:08;94861.00;;;-0.81;100.00
23677;BME280;31493;49.058;12.190;2022-12-10T03:02:45;94844.25;;;-0.85;100.00
23677;BME280;31493;49.058;12.190;2022-12-10T03:05:18;94846.75;;;-1.03;100.00
23677;BME280;31493;49.058;12.190;2022-12-10T03:07:52;94839.03;;;-1.02;100.00
23677;BME280;31493;49.058;12.190;2022-12-10T03:10:24;94841.13;;;-1.12;100.00
23677;BME280;31493;49.058;12.190;2022-12-10T03:12:58;94840.88;;;-1.05;100.00
23677;BME280;31493;49.058;12.190;2022-12-10T03:15:28;94845.03;;;-1.03;100.00
23677;BME280;31493;49.058;12.190;2022-12-10T03:17:58;94848.38;;;-1.02;100.00
23677;BME280;31493;49.058;12.190;2022-12-10T03:20:28;94843.97;;;-0.99;100.00
23677;BME280;31493;49.058;12.190;2022-12-10T03:22:58;94849.38;;;-0.86;100.00
23677;BME280;31493;49.058;12.190;2022-12-10T03:25:28;94838.44;;;-0.88;100.00
23677;BME280;31493;49.058;12.190;2022-12-10T03:27:58;94840.31;;;-0.92;100.00
23677;BME280;31493;49.058;12.190;2022-12-10T03:30:28;94853.88;;;-0.93;100.00
23677;BME280;31493;49.058;12.190;2022-12-10T03:32:57;94853.16;;;-0.76;100.00
23677;BME280;31493;49.058;12.190;2022-12-10T03:35:24;94853.44;;;-0.82;100.00
23677;BME280;31493;49.058;12.190;2022-12-10T03:37:52;94848.69;;;-0.90;100.00
23677;BME280;31493;49.058;12.190;2022-12-10T03:40:22;94834.34;;;-0.91;100.00
23677;BME280;31493;49.058;12.190;2022-12-10T03:42:49;94832.00;;;-0.95;100.00
23677;BME280;31493;49.058;12.190;2022-12-10T03:45:16;94834.13;;;-0.86;100.00
23677;BME280;31493;49.058;12.190;2022-12-10T03:47:45;94830.19;;;-0.93;100.00
23677;BME280;31493;49.058;12.190;2022-12-10T03:50:12;94834.19;;;-0.67;100.00
23677;BME280;31493;49.058;12.190;2022-12-10T03:52:39;94831.19;;;-0.77;100.00
23677;BME280;31493;49.058;12.190;2022-12-10T03:55:06;94826.94;;;-0.76;100.00
23677;BME280;31493;49.058;12.190;2022-12-10T03:57:35;94828.22;;;-0.87;100.00
23677;BME280;31493;49.058;12.190;2022-12-10T04:00:03;94824.81;;;-0.86;100.00
23677;BME280;31493;49.058;12.190;2022-12-10T04:02:30;94829.75;;;-0.83;100.00
23677;BME280;31493;49.058;12.190;2022-12-10T04:04:59;94820.03;;;-0.93;100.00
23677;BME280;31493;49.058;12.190;2022-12-10T04:07:26;94825.81;;;-0.90;100.00
23677;BME280;31493;49.058;12.190;2022-12-10T04:09:53;94831.09;;;-0.94;100.00
23677;BME280;31493;49.058;12.190;2022-12-10T04:12:20;94830.81;;;-0.88;100.00
23677;BME280;31493;49.058;12.190;2022-12-10T04:14:47;94834.28;;;-0.89;100.00
23677;BME280;31493;49.058;12.190;2022-12-10T04:17:32;94827.53;;;-0.90;100.00
23677;BME280;31493;49.058;12.190;2022-12-10T04:20:00;94827.41;;;-0.87;100.00
23677;BME280;31493;49.058;12.190;2022-12-10T04:22:27;94839.97;;;-0.84;100.00
23677;BME280;31493;49.058;12.190;2022-12-10T04:25:12;94836.88;;;-0.91;100.00
23677;BME280;31493;49.058;12.190;2022-12-10T04:27:57;94834.19;;;-0.88;100.00
23677;BME280;31493;49.058;12.190;2022-12-10T04:30:24;94832.47;;;-0.87;100.00
23677;BME280;31493;49.058;12.190;2022-12-10T04:32:51;94825.28;;;-0.77;100.00
23677;BME280;31493;49.058;12.190;2022-12-10T04:35:20;94835.19;;;-0.71;100.00
23677;BME280;31493;49.058;12.190;2022-12-10T04:37:47;94836.53;;;-0.83;100.00
23677;BME280;31493;49.058;12.190;2022-12-10T04:40:14;94844.34;;;-0.88;100.00
23677;BME280;31493;49.058;12.190;2022-12-10T04:42:41;94843.97;;;-0.78;100.00
23677;BME280;31493;49.058;12.190;2022-12-10T04:45:08;94843.16;;;-0.79;100.00
23677;BME280;31493;49.058;12.190;2022-12-10T04:47:36;94855.44;;;-0.70;100.00
23677;BME280;31493;49.058;12.190;2022-12-10T04:50:03;94850.03;;;-0.62;100.00
23677;BME280;31493;49.058;12.190;2022-12-10T04:52:32;94844.28;;;-0.66;100.00
23677;BME280;31493;49.058;12.190;2022-12-10T04:54:59;94853.06;;;-0.73;100.00
23677;BME280;31493;49.058;12.190;2022-12-10T04:57:26;94842.44;;;-0.83;100.00
23677;BME280;31493;49.058;12.190;2022-12-10T04:59:53;94847.59;;;-0.84;100.00
23677;BME280;31493;49.058;12.190;2022-12-10T05:02:20;94845.06;;;-0.84;100.00
23677;BME280;31493;49.058;12.190;2022-12-10T05:04:48;94830.19;;;-0.73;100.00
23677;BME280;31493;49.058;12.190;2022-12-10T05:07:15;94844.91;;;-0.81;100.00
23677;BME280;31493;49.058;12.190;2022-12-10T05:09:43;94845.75;;;-0.81;100.00
23677;BME280;31493;49.058;12.190;2022-12-10T05:12:10;94847.72;;;-0.87;100.00
23677;BME280;31493;49.058;12.190;2022-12-10T05:14:37;94847.59;;;-0.84;100.00
23677;BME280;31493;49.058;12.190;2022-12-10T05:17:04;94837.63;;;-0.89;100.00
23677;BME280;31493;49.058;12.190;2022-12-10T05:19:31;94855.41;;;-0.89;100.00
23677;BME280;31493;49.058;12.190;2022-12-10T05:21:58;94845.13;;;-0.86;100.00
23677;BME280;31493;49.058;12.190;2022-12-10T05:24:45;94860.94;;;-0.79;100.00
23677;BME280;31493;49.058;12.190;2022-12-10T05:27:12;94861.56;;;-0.94;100.00
23677;BME280;31493;49.058;12.190;2022-12-10T05:29:39;94870.72;;;-0.90;100.00
23677;BME280;31493;49.058;12.190;2022-12-10T05:32:06;94864.88;;;-0.92;100.00
23677;BME280;31493;49.058;12.190;2022-12-10T05:34:33;94865.72;;;-0.92;100.00
23677;BME280;31493;49.058;12.190;2022-12-10T05:37:00;94857.25;;;-0.92;100.00
23677;BME280;31493;49.058;12.190;2022-12-10T05:39:26;94860.44;;;-0.87;100.00
23677;BME280;31493;49.058;12.190;2022-12-10T05:41:55;94874.91;;;-0.89;100.00
23677;BME280;31493;49.058;12.190;2022-12-10T05:44:22;94864.50;;;-0.83;100.00
23677;BME280;31493;49.058;12.190;2022-12-10T05:46:49;94860.31;;;-0.84;100.00
23677;BME280;31493;49.058;12.190;2022-12-10T05:49:16;94848.44;;;-0.84;100.00
23677;BME280;31493;49.058;12.190;2022-12-10T05:51:43;94866.31;;;-0.87;100.00
23677;BME280;31493;49.058;12.190;2022-12-10T05:54:10;94862.69;;;-0.81;100.00
23677;BME280;31493;49.058;12.190;2022-12-10T05:56:37;94852.88;;;-0.89;100.00
23677;BME280;31493;49.058;12.190;2022-12-10T05:59:05;94859.59;;;-0.88;100.00
23677;BME280;31493;49.058;12.190;2022-12-10T06:01:34;94870.59;;;-0.87;100.00
23677;BME280;31493;49.058;12.190;2022-12-10T06:04:04;94862.97;;;-0.87;100.00
23677;BME280;31493;49.058;12.190;2022-12-10T06:06:33;94873.78;;;-0.82;100.00
23677;BME280;31493;49.058;12.190;2022-12-10T06:09:00;94872.88;;;-0.81;100.00
23677;BME280;31493;49.058;12.190;2022-12-10T06:11:28;94871.22;;;-0.82;100.00
23677;BME280;31493;49.058;12.190;2022-12-10T06:13:56;94863.50;;;-0.79;100.00
23677;BME280;31493;49.058;12.190;2022-12-10T06:16:26;94871.94;;;-0.78;100.00
23677;BME280;31493;49.058;12.190;2022-12-10T06:18:53;94854.53;;;-0.88;100.00
23677;BME280;31493;49.058;12.190;2022-12-10T06:21:21;94854.66;;;-0.91;100.00
23677;BME280;31493;49.058;12.190;2022-12-10T06:23:49;94870.28;;;-0.79;100.00
23677;BME280;31493;49.058;12.190;2022-12-10T06:26:18;94854.25;;;-0.82;100.00
23677;BME280;31493;49.058;12.190;2022-12-10T06:28:47;94872.38;;;-0.89;100.00
23677;BME280;31493;49.058;12.190;2022-12-10T06:31:15;94873.19;;;-0.89;100.00
23677;BME280;31493;49.058;12.190;2022-12-10T06:33:43;94871.16;;;-0.81;100.00
23677;BME280;31493;49.058;12.190;2022-12-10T06:36:12;94862.53;;;-0.76;100.00
23677;BME280;31493;49.058;12.190;2022-12-10T06:38:40;94873.44;;;-0.74;100.00
23677;BME280;31493;49.058;12.190;2022-12-10T06:41:10;94867.84;;;-0.83;100.00
23677;BME280;31493;49.058;12.190;2022-12-10T06:43:37;94869.91;;;-0.91;100.00
23677;BME280;31493;49.058;12.190;2022-12-10T06:46:05;94888.53;;;-0.90;100.00
23677;BME280;31493;49.058;12.190;2022-12-10T06:48:33;94889.84;;;-0.82;100.00
23677;BME280;31493;49.058;12.190;2022-12-10T06:51:02;94896.25;;;-0.73;100.00
23677;BME280;31493;49.058;12.190;2022-12-10T06:53:29;94894.03;;;-0.81;100.00
23677;BME280;31493;49.058;12.190;2022-12-10T06:55:57;94896.56;;;-0.81;100.00
23677;BME280;31493;49.058;12.190;2022-12-10T06:58:26;94895.00;;;-0.83;100.00
23677;BME280;31493;49.058;12.190;2022-12-10T07:00:54;94892.13;;;-0.75;100.00
23677;BME280;31493;49.058;12.190;2022-12-10T07:03:21;94903.31;;;-0.79;100.00
23677;BME280;31493;49.058;12.190;2022-12-10T07:05:48;94897.66;;;-0.86;100.00
23677;BME280;31493;49.058;12.190;2022-12-10T07:08:16;94897.53;;;-0.83;100.00
23677;BME280;31493;49.058;12.190;2022-12-10T07:10:45;94886.53;;;-0.84;100.00
23677;BME280;31493;49.058;12.190;2022-12-10T07:13:12;94906.22;;;-0.89;100.00
23677;BME280;31493;49.058;12.190;2022-12-10T07:15:39;94901.97;;;-0.88;100.00
23677;BME280;31493;49.058;12.190;2022-12-10T07:18:06;94899.44;;;-0.88;100.00
23677;BME280;31493;49.058;12.190;2022-12-10T07:20:33;94906.88;;;-0.84;100.00
23677;BME280;31493;49.058;12.190;2022-12-10T07:23:00;94914.94;;;-0.94;100.00
23677;BME280;31493;49.058;12.190;2022-12-10T07:25:28;94900.50;;;-0.94;100.00
23677;BME280;31493;49.058;12.190;2022-12-10T07:27:55;94903.88;;;-0.93;100.00
23677;BME280;31493;49.058;12.190;2022-12-10T07:30:22;94903.84;;;-0.92;100.00
23677;BME280;31493;49.058;12.190;2022-12-10T07:32:49;94890.72;;;-0.83;100.00
23677;BME280;31493;49.058;12.190;2022-12-10T07:35:17;94884.69;;;-0.80;100.00
23677;BME280;31493;49.058;12.190;2022-12-10T07:37:44;94893.00;;;-0.76;100.00
23677;BME280;31493;49.058;12.190;2022-12-10T07:40:11;94893.41;;;-0.86;100.00
23677;BME280;31493;49.058;12.190;2022-12-10T07:42:39;94903.38;;;-0.81;100.00
23677;BME280;31493;49.058;12.190;2022-12-10T07:45:07;94896.63;;;-0.82;100.00
23677;BME280;31493;49.058;12.190;2022-12-10T07:47:34;94893.34;;;-0.84;100.00
23677;BME280;31493;49.058;12.190;2022-12-10T07:50:02;94894.72;;;-0.77;100.00
23677;BME280;31493;49.058;12.190;2022-12-10T07:52:29;94901.19;;;-0.70;100.00
23677;BME280;31493;49.058;12.190;2022-12-10T07:54:56;94896.53;;;-0.79;100.00
23677;BME280;31493;49.058;12.190;2022-12-10T07:57:23;94895.63;;;-0.78;100.00
23677;BME280;31493;49.058;12.190;2022-12-10T07:59:51;94903.31;;;-0.79;100.00
23677;BME280;31493;49.058;12.190;2022-12-10T08:02:18;94904.44;;;-0.87;100.00
23677;BME280;31493;49.058;12.190;2022-12-10T08:04:45;94913.59;;;-0.83;100.00
23677;BME280;31493;49.058;12.190;2022-12-10T08:07:12;94919.31;;;-0.77;100.00
23677;BME280;31493;49.058;12.190;2022-12-10T08:09:39;94927.38;;;-0.88;100.00
23677;BME280;31493;49.058;12.190;2022-12-10T08:12:06;94940.81;;;-0.85;100.00
23677;BME280;31493;49.058;12.190;2022-12-10T08:14:33;94950.16;;;-0.85;100.00
23677;BME280;31493;49.058;12.190;2022-12-10T08:17:01;94948.09;;;-0.77;100.00
23677;BME280;31493;49.058;12.190;2022-12-10T08:19:29;94948.84;;;-0.75;100.00
23677;BME280;31493;49.058;12.190;2022-12-10T08:21:56;94942.63;;;-0.68;100.00
23677;BME280;31493;49.058;12.190;2022-12-10T08:24:23;94935.97;;;-0.70;100.00
23677;BME280;31493;49.058;12.190;2022-12-10T08:26:50;94929.09;;;-0.68;100.00
23677;BME280;31493;49.058;12.190;2022-12-10T08:29:17;94928.47;;;-0.73;100.00
23677;BME280;31493;49.058;12.190;2022-12-10T08:31:44;94909.09;;;-0.76;100.00
23677;BME280;31493;49.058;12.190;2022-12-10T08:34:15;94917.41;;;-0.72;100.00
23677;BME280;31493;49.058;12.190;2022-12-10T08:36:44;94914.66;;;-0.68;100.00
23677;BME280;31493;49.058;12.190;2022-12-10T08:39:12;94918.34;;;-0.75;100.00
23677;BME280;31493;49.058;12.190;2022-12-10T08:41:41;94925.78;;;-0.70;100.00
23677;BME280;31493;49.058;12.190;2022-12-10T08:44:08;94924.16;;;-0.71;100.00
23677;BME280;31493;49.058;12.190;2022-12-10T08:46:38;94923.19;;;-0.69;100.00
23677;BME280;31493;49.058;12.190;2022-12-10T08:49:05;94926.28;;;-0.62;100.00
23677;BME280;31493;49.058;12.190;2022-12-10T08:51:34;94933.91;;;-0.62;100.00
23677;BME280;31493;49.058;12.190;2022-12-10T08:54:01;94925.59;;;-0.66;100.00
23677;BME280;31493;49.058;12.190;2022-12-10T08:56:29;94937.50;;;-0.66;100.00
23677;BME280;31493;49.058;12.190;2022-12-10T08:58:56;94922.28;;;-0.68;100.00
23677;BME280;31493;49.058;12.190;2022-12-10T09:01:23;94928.47;;;-0.73;100.00
23677;BME280;31493;49.058;12.190;2022-12-10T09:03:50;94934.06;;;-0.65;100.00
23677;BME280;31493;49.058;12.190;2022-12-10T09:06:19;94949.88;;;-0.59;100.00
23677;BME280;31493;49.058;12.190;2022-12-10T09:08:48;94953.56;;;-0.66;100.00
23677;BME280;31493;49.058;12.190;2022-12-10T09:11:17;94954.00;;;-0.56;100.00
23677;BME280;31493;49.058;12.190;2022-12-10T09:13:44;94956.13;;;-0.66;100.00
23677;BME280;31493;49.058;12.190;2022-12-10T09:16:11;94944.66;;;-0.56;100.00
23677;BME280;31493;49.058;12.190;2022-12-10T09:18:39;94940.69;;;-0.61;100.00
23677;BME280;31493;49.058;12.190;2022-12-10T09:21:07;94943.22;;;-0.61;100.00
23677;BME280;31493;49.058;12.190;2022-12-10T09:23:34;94944.59;;;-0.54;100.00
23677;BME280;31493;49.058;12.190;2022-12-10T09:26:06;94935.88;;;-0.48;100.00
23677;BME280;31493;49.058;12.190;2022-12-10T09:28:35;94938.94;;;-0.40;100.00
23677;BME280;31493;49.058;12.190;2022-12-10T09:31:03;94936.84;;;-0.51;100.00
23677;BME280;31493;49.058;12.190;2022-12-10T09:33:31;94934.94;;;-0.46;100.00
23677;BME280;31493;49.058;12.190;2022-12-10T09:35:58;94944.34;;;-0.48;100.00
23677;BME280;31493;49.058;12.190;2022-12-10T09:38:25;94925.84;;;-0.51;100.00
23677;BME280;31493;49.058;12.190;2022-12-10T09:41:00;94926.06;;;-0.37;100.00
23677;BME280;31493;49.058;12.190;2022-12-10T09:43:42;94930.94;;;-0.33;100.00
23677;BME280;31493;49.058;12.190;2022-12-10T09:46:17;94934.03;;;-0.45;100.00
23677;BME280;31493;49.058;12.190;2022-12-10T09:48:56;94933.56;;;-0.34;100.00
23677;BME280;31493;49.058;12.190;2022-12-10T09:51:27;94938.47;;;-0.30;100.00
23677;BME280;31493;49.058;12.190;2022-12-10T09:53:57;94936.19;;;-0.36;100.00
23677;BME280;31493;49.058;12.190;2022-12-10T09:56:26;94929.50;;;-0.38;100.00
23677;BME280;31493;49.058;12.190;2022-12-10T09:58:57;94929.72;;;-0.43;100.00
23677;BME280;31493;49.058;12.190;2022-12-10T10:01:27;94930.41;;;-0.39;100.00
23677;BME280;31493;49.058;12.190;2022-12-10T10:03:55;94925.88;;;-0.33;100.00
23677;BME280;31493;49.058;12.190;2022-12-10T10:06:23;94916.47;;;-0.31;100.00
23677;BME280;31493;49.058;12.190;2022-12-10T10:08:55;94912.88;;;-0.27;100.00
23677;BME280;31493;49.058;12.190;2022-12-10T10:11:29;94914.25;;;-0.19;100.00
23677;BME280;31493;49.058;12.190;2022-12-10T10:14:01;94907.53;;;-0.20;100.00
23677;BME280;31493;49.058;12.190;2022-12-10T10:16:33;94906.44;;;-0.15;100.00
23677;BME280;31493;49.058;12.190;2022-12-10T10:19:03;94917.22;;;-0.10;100.00
23677;BME280;31493;49.058;12.190;2022-12-10T10:21:34;94907.13;;;-0.11;100.00
23677;BME280;31493;49.058;12.190;2022-12-10T10:24:03;94908.44;;;-0.03;100.00
23677;BME280;31493;49.058;12.190;2022-12-10T10:26:32;94919.22;;;0.03;100.00
23677;BME280;31493;49.058;12.190;2022-12-10T10:29:04;94912.00;;;-0.07;100.00
23677;BME280;31493;49.058;12.190;2022-12-10T10:31:34;94914.81;;;-0.13;100.00
23677;BME280;31493;49.058;12.190;2022-12-10T10:34:04;94915.97;;;-0.01;100.00
23677;BME280;31493;49.058;12.190;2022-12-10T10:36:34;94917.78;;;-0.03;100.00
23677;BME280;31493;49.058;12.190;2022-12-10T10:39:08;94917.03;;;-0.05;100.00
23677;BME280;31493;49.058;12.190;2022-12-10T10:41:38;94918.88;;;-0.09;100.00
23677;BME280;31493;49.058;12.190;2022-12-10T10:44:15;94927.84;;;0.00;100.00
23677;BME280;31493;49.058;12.190;2022-12-10T10:46:44;94935.53;;;-0.02;100.00
23677;BME280;31493;49.058;12.190;2022-12-10T10:49:22;94930.97;;;0.05;100.00
23677;BME280;31493;49.058;12.190;2022-12-10T10:51:51;94922.69;;;0.02;100.00
23677;BME280;31493;49.058;12.190;2022-12-10T10:54:35;94913.44;;;-0.01;100.00
23677;BME280;31493;49.058;12.190;2022-12-10T10:57:08;94911.16;;;-0.07;100.00
23677;BME280;31493;49.058;12.190;2022-12-10T10:59:39;94916.06;;;-0.03;100.00
23677;BME280;31493;49.058;12.190;2022-12-10T11:02:17;94902.25;;;0.03;100.00
23677;BME280;31493;49.058;12.190;2022-12-10T11:04:46;94907.59;;;-0.03;100.00
23677;BME280;31493;49.058;12.190;2022-12-10T11:07:21;94903.06;;;0.04;100.00
23677;BME280;31493;49.058;12.190;2022-12-10T11:09:52;94904.16;;;0.17;100.00
23677;BME280;31493;49.058;12.190;2022-12-10T11:12:34;94910.50;;;0.08;100.00
23677;BME280;31493;49.058;12.190;2022-12-10T11:15:28;94893.59;;;0.07;100.00
23677;BME280;31493;49.058;12.190;2022-12-10T11:17:57;94894.75;;;0.00;100.00
23677;BME280;31493;49.058;12.190;2022-12-10T11:20:26;94897.22;;;0.02;100.00
23677;BME280;31493;49.058;12.190;2022-12-10T11:22:55;94895.50;;;0.02;100.00
23677;BME280;31493;49.058;12.190;2022-12-10T11:25:33;94897.56;;;0.13;100.00
23677;BME280;31493;49.058;12.190;2022-12-10T11:28:07;94884.16;;;0.09;100.00
23677;BME280;31493;49.058;12.190;2022-12-10T11:30:45;94876.72;;;0.05;100.00
23677;BME280;31493;49.058;12.190;2022-12-10T11:33:23;94871.09;;;0.34;100.00
23677;BME280;31493;49.058;12.190;2022-12-10T11:36:00;94871.16;;;0.15;100.00
23677;BME280;31493;49.058;12.190;2022-12-10T11:38:38;94862.53;;;0.18;100.00
23677;BME280;31493;49.058;12.190;2022-12-10T11:41:16;94863.50;;;0.15;100.00
23677;BME280;31493;49.058;12.190;2022-12-10T11:44:12;94865.88;;;0.37;100.00
23677;BME280;31493;49.058;12.190;2022-12-10T11:46:57;94861.00;;;0.33;100.00
23677;BME280;31493;49.058;12.190;2022-12-10T11:49:35;94856.34;;;0.23;100.00
23677;BME280;31493;49.058;12.190;2022-12-10T11:52:11;94872.53;;;0.40;100.00
23677;BME280;31493;49.058;12.190;2022-12-10T11:54:56;94862.06;;;0.46;100.00
23677;BME280;31493;49.058;12.190;2022-12-10T11:57:30;94867.44;;;0.40;100.00
23677;BME280;31493;49.058;12.190;2022-12-10T12:00:12;94874.91;;;0.62;100.00
23677;BME280;31493;49.058;12.190;2022-12-10T12:02:55;94869.38;;;0.35;100.00
23677;BME280;31493;49.058;12.190;2022-12-10T12:05:55;94872.03;;;0.50;100.00
23677;BME280;31493;49.058;12.190;2022-12-10T12:08:36;94883.19;;;0.48;100.00
23677;BME280;31493;49.058;12.190;2022-12-10T12:11:14;94870.22;;;0.35;100.00
23677;BME280;31493;49.058;12.190;2022-12-10T12:13:54;94888.22;;;0.49;100.00
23677;BME280;31493;49.058;12.190;2022-12-10T12:16:27;94894.16;;;0.50;100.00
23677;BME280;31493;49.058;12.190;2022-12-10T12:18:59;94877.81;;;0.54;100.00
23677;BME280;31493;49.058;12.190;2022-12-10T12:21:27;94881.91;;;0.39;100.00
23677;BME280;31493;49.058;12.190;2022-12-10T12:23:56;94881.31;;;0.51;100.00
23677;BME280;31493;49.058;12.190;2022-12-10T12:26:29;94891.81;;;0.45;100.00
23677;BME280;31493;49.058;12.190;2022-12-10T12:29:05;94887.31;;;0.50;100.00
23677;BME280;31493;49.058;12.190;2022-12-10T12:31:37;94892.47;;;0.49;100.00
23677;BME280;31493;49.058;12.190;2022-12-10T12:34:15;94894.72;;;0.55;100.00
23677;BME280;31493;49.058;12.190;2022-12-10T12:36:44;94889.19;;;0.47;100.00
23677;BME280;31493;49.058;12.190;2022-12-10T12:39:17;94893.38;;;0.48;100.00
23677;BME280;31493;49.058;12.190;2022-12-10T12:41:49;94883.19;;;0.48;100.00
23677;BME280;31493;49.058;12.190;2022-12-10T12:44:22;94895.41;;;0.59;100.00
23677;BME280;31493;49.058;12.190;2022-12-10T12:46:56;94885.81;;;0.46;100.00
23677;BME280;31493;49.058;12.190;2022-12-10T12:49:28;94893.84;;;0.56;100.00
23677;BME280;31493;49.058;12.190;2022-12-10T12:52:00;94892.13;;;0.57;100.00
23677;BME280;31493;49.058;12.190;2022-12-10T12:54:29;94886.22;;;0.56;100.00